sensor_id;sensor_type;location;lat;lon;timestamp;P1;durP1;ratioP1;P2;durP2;ratioP2
54177;SDS011;40085;53.004;6.770;2023-01-01T00:01:06;9.70;;;5.28;;
54177;SDS011;40085;53.004;6.770;2023-01-01T00:06:06;8.55;;;4.80;;
54177;SDS011;40085;53.004;6.770;2023-01-01T00:08:35;14.45;;;7.03;;
54177;SDS011;40085;53.004;6.770;2023-01-01T00:11:04;9.23;;;5.93;;
54177;SDS011;40085;53.004;6.770;2023-01-01T00:13:32;8.60;;;5.60;;
54177;SDS011;40085;53.004;6.770;2023-01-01T00:16:09;10.23;;;6.75;;
54177;SDS011;40085;53.004;6.770;2023-01-01T00:18:38;13.75;;;6.30;;
54177;SDS011;40085;53.004;6.770;2023-01-01T00:21:05;16.10;;;6.43;;
54177;SDS011;40085;53.004;6.770;2023-01-01T00:23:33;17.52;;;7.20;;
54177;SDS011;40085;53.004;6.770;2023-01-01T00:25:59;12.05;;;6.70;;
54177;SDS011;40085;53.004;6.770;2023-01-01T00:28:24;17.63;;;8.25;;
54177;SDS011;40085;53.004;6.770;2023-01-01T00:30:50;13.27;;;9.25;;
54177;SDS011;40085;53.004;6.770;2023-01-01T00:33:16;17.63;;;8.25;;
54177;SDS011;40085;53.004;6.770;2023-01-01T00:35:41;24.63;;;9.35;;
54177;SDS011;40085;53.004;6.770;2023-01-01T00:38:07;19.73;;;10.38;;
54177;SDS011;40085;53.004;6.770;2023-01-01T00:40:32;20.40;;;11.73;;
54177;SDS011;40085;53.004;6.770;2023-01-01T00:42:58;23.30;;;12.52;;
54177;SDS011;40085;53.004;6.770;2023-01-01T00:45:24;19.20;;;11.68;;
54177;SDS011;40085;53.004;6.770;2023-01-01T00:47:50;17.25;;;11.73;;
54177;SDS011;40085;53.004;6.770;2023-01-01T00:50:17;15.52;;;10.18;;
54177;SDS011;40085;53.004;6.770;2023-01-01T00:52:43;35.25;;;22.40;;
54177;SDS011;40085;53.004;6.770;2023-01-01T00:55:09;20.85;;;12.20;;
54177;SDS011;40085;53.004;6.770;2023-01-01T00:57:35;18.13;;;10.85;;
54177;SDS011;40085;53.004;6.770;2023-01-01T01:00:01;17.42;;;10.95;;
54177;SDS011;40085;53.004;6.770;2023-01-01T01:02:28;24.98;;;11.48;;
54177;SDS011;40085;53.004;6.770;2023-01-01T01:04:53;21.27;;;10.52;;
54177;SDS011;40085;53.004;6.770;2023-01-01T01:07:19;18.67;;;8.20;;
54177;SDS011;40085;53.004;6.770;2023-01-01T01:09:45;13.57;;;8.35;;
54177;SDS011;40085;53.004;6.770;2023-01-01T01:12:10;15.25;;;7.95;;
54177;SDS011;40085;53.004;6.770;2023-01-01T01:14:36;15.52;;;7.95;;
54177;SDS011;40085;53.004;6.770;2023-01-01T01:17:01;12.93;;;7.65;;
54177;SDS011;40085;53.004;6.770;2023-01-01T01:19:27;16.58;;;8.98;;
54177;SDS011;40085;53.004;6.770;2023-01-01T01:21:52;16.23;;;7.70;;
54177;SDS011;40085;53.004;6.770;2023-01-01T01:24:18;16.42;;;9.35;;
54177;SDS011;40085;53.004;6.770;2023-01-01T01:26:44;18.30;;;8.98;;
54177;SDS011;40085;53.004;6.770;2023-01-01T01:29:09;12.15;;;7.05;;
54177;SDS011;40085;53.004;6.770;2023-01-01T01:31:35;16.88;;;8.93;;
54177;SDS011;40085;53.004;6.770;2023-01-01T01:34:00;17.00;;;8.95;;
54177;SDS011;40085;53.004;6.770;2023-01-01T01:36:26;12.27;;;6.55;;
54177;SDS011;40085;53.004;6.770;2023-01-01T01:38:53;15.75;;;8.40;;
54177;SDS011;40085;53.004;6.770;2023-01-01T01:41:20;16.45;;;8.82;;
54177;SDS011;40085;53.004;6.770;2023-01-01T01:43:51;18.95;;;9.18;;
54177;SDS011;40085;53.004;6.770;2023-01-01T01:46:18;15.35;;;8.93;;
54177;SDS011;40085;53.004;6.770;2023-01-01T01:48:51;15.38;;;10.50;;
54177;SDS011;40085;53.004;6.770;2023-01-01T01:51:20;24.50;;;10.00;;
54177;SDS011;40085;53.004;6.770;2023-01-01T01:53:53;19.15;;;9.82;;
54177;SDS011;40085;53.004;6.770;2023-01-01T01:56:27;19.70;;;8.45;;
54177;SDS011;40085;53.004;6.770;2023-01-01T01:59:06;18.05;;;10.20;;
54177;SDS011;40085;53.004;6.770;2023-01-01T02:01:32;17.13;;;8.68;;
54177;SDS011;40085;53.004;6.770;2023-01-01T02:03:58;15.27;;;8.63;;
54177;SDS011;40085;53.004;6.770;2023-01-01T02:06:26;16.90;;;8.50;;
54177;SDS011;40085;53.004;6.770;2023-01-01T02:08:54;15.88;;;8.80;;
54177;SDS011;40085;53.004;6.770;2023-01-01T02:11:21;13.55;;;8.45;;
54177;SDS011;40085;53.004;6.770;2023-01-01T02:13:48;16.75;;;7.50;;
54177;SDS011;40085;53.004;6.770;2023-01-01T02:18:59;14.05;;;7.10;;
54177;SDS011;40085;53.004;6.770;2023-01-01T02:24:03;19.00;;;6.82;;
54177;SDS011;40085;53.004;6.770;2023-01-01T02:26:54;18.25;;;8.15;;
54177;SDS011;40085;53.004;6.770;2023-01-01T02:29:31;13.82;;;7.30;;
54177;SDS011;40085;53.004;6.770;2023-01-01T02:32:30;11.48;;;6.53;;
54177;SDS011;40085;53.004;6.770;2023-01-01T02:35:25;11.93;;;6.68;;
54177;SDS011;40085;53.004;6.770;2023-01-01T02:38:15;11.45;;;5.63;;
54177;SDS011;40085;53.004;6.770;2023-01-01T02:40:52;12.20;;;5.22;;
54177;SDS011;40085;53.004;6.770;2023-01-01T02:43:40;14.18;;;5.80;;
54177;SDS011;40085;53.004;6.770;2023-01-01T02:46:07;8.18;;;4.53;;
54177;SDS011;40085;53.004;6.770;2023-01-01T02:51:08;13.80;;;5.25;;
54177;SDS011;40085;53.004;6.770;2023-01-01T02:53:51;8.18;;;4.40;;
54177;SDS011;40085;53.004;6.770;2023-01-01T02:56:42;9.98;;;5.30;;
54177;SDS011;40085;53.004;6.770;2023-01-01T03:05:06;9.60;;;4.18;;
54177;SDS011;40085;53.004;6.770;2023-01-01T03:10:22;8.90;;;4.60;;
54177;SDS011;40085;53.004;6.770;2023-01-01T03:15:50;7.60;;;3.00;;
54177;SDS011;40085;53.004;6.770;2023-01-01T03:18:27;8.18;;;3.92;;
54177;SDS011;40085;53.004;6.770;2023-01-01T03:21:14;6.55;;;3.78;;
54177;SDS011;40085;53.004;6.770;2023-01-01T03:23:46;9.57;;;3.65;;
54177;SDS011;40085;53.004;6.770;2023-01-01T03:26:14;7.78;;;2.92;;
54177;SDS011;40085;53.004;6.770;2023-01-01T03:28:52;6.13;;;2.38;;
54177;SDS011;40085;53.004;6.770;2023-01-01T03:31:21;3.47;;;2.22;;
54177;SDS011;40085;53.004;6.770;2023-01-01T03:34:00;6.25;;;1.42;;
54177;SDS011;40085;53.004;6.770;2023-01-01T03:36:31;5.32;;;2.40;;
54177;SDS011;40085;53.004;6.770;2023-01-01T03:39:14;4.03;;;2.05;;
54177;SDS011;40085;53.004;6.770;2023-01-01T03:41:55;2.83;;;1.40;;
54177;SDS011;40085;53.004;6.770;2023-01-01T03:44:34;2.40;;;1.35;;
54177;SDS011;40085;53.004;6.770;2023-01-01T03:47:08;4.60;;;1.75;;
54177;SDS011;40085;53.004;6.770;2023-01-01T03:49:33;4.22;;;2.38;;
54177;SDS011;40085;53.004;6.770;2023-01-01T03:52:01;6.93;;;1.73;;
54177;SDS011;40085;53.004;6.770;2023-01-01T03:54:43;7.45;;;1.55;;
54177;SDS011;40085;53.004;6.770;2023-01-01T04:02:25;3.42;;;1.50;;
54177;SDS011;40085;53.004;6.770;2023-01-01T04:04:55;7.30;;;1.23;;
54177;SDS011;40085;53.004;6.770;2023-01-01T04:07:24;3.92;;;1.75;;
54177;SDS011;40085;53.004;6.770;2023-01-01T04:09:50;5.28;;;1.92;;
54177;SDS011;40085;53.004;6.770;2023-01-01T04:12:17;5.03;;;1.30;;
54177;SDS011;40085;53.004;6.770;2023-01-01T04:14:44;5.97;;;1.73;;
54177;SDS011;40085;53.004;6.770;2023-01-01T04:17:10;3.47;;;1.15;;
54177;SDS011;40085;53.004;6.770;2023-01-01T04:19:36;4.72;;;1.80;;
54177;SDS011;40085;53.004;6.770;2023-01-01T04:22:02;5.70;;;1.70;;
54177;SDS011;40085;53.004;6.770;2023-01-01T04:24:29;6.50;;;1.02;;
54177;SDS011;40085;53.004;6.770;2023-01-01T04:26:54;3.97;;;1.40;;
54177;SDS011;40085;53.004;6.770;2023-01-01T04:29:20;6.90;;;1.30;;
54177;SDS011;40085;53.004;6.770;2023-01-01T04:31:47;5.47;;;1.25;;
54177;SDS011;40085;53.004;6.770;2023-01-01T04:34:13;4.22;;;1.63;;
54177;SDS011;40085;53.004;6.770;2023-01-01T04:36:38;1.55;;;0.80;;
54177;SDS011;40085;53.004;6.770;2023-01-01T04:39:04;1.65;;;0.88;;
54177;SDS011;40085;53.004;6.770;2023-01-01T04:41:31;2.97;;;1.00;;
54177;SDS011;40085;53.004;6.770;2023-01-01T04:43:57;2.50;;;1.33;;
54177;SDS011;40085;53.004;6.770;2023-01-01T04:46:22;4.55;;;1.00;;
54177;SDS011;40085;53.004;6.770;2023-01-01T04:48:49;1.75;;;0.98;;
54177;SDS011;40085;53.004;6.770;2023-01-01T04:51:15;3.53;;;1.02;;
54177;SDS011;40085;53.004;6.770;2023-01-01T04:53:42;2.65;;;1.00;;
54177;SDS011;40085;53.004;6.770;2023-01-01T04:56:12;3.15;;;1.67;;
54177;SDS011;40085;53.004;6.770;2023-01-01T04:58:40;2.80;;;1.20;;
54177;SDS011;40085;53.004;6.770;2023-01-01T05:01:07;5.53;;;1.25;;
54177;SDS011;40085;53.004;6.770;2023-01-01T05:03:38;1.67;;;1.08;;
54177;SDS011;40085;53.004;6.770;2023-01-01T05:06:05;1.40;;;0.77;;
54177;SDS011;40085;53.004;6.770;2023-01-01T05:08:33;3.30;;;1.33;;
54177;SDS011;40085;53.004;6.770;2023-01-01T05:11:00;3.63;;;0.85;;
54177;SDS011;40085;53.004;6.770;2023-01-01T05:13:37;3.50;;;1.20;;
54177;SDS011;40085;53.004;6.770;2023-01-01T05:16:04;1.70;;;1.08;;
54177;SDS011;40085;53.004;6.770;2023-01-01T05:18:32;1.55;;;0.80;;
54177;SDS011;40085;53.004;6.770;2023-01-01T05:21:10;8.80;;;1.35;;
54177;SDS011;40085;53.004;6.770;2023-01-01T05:23:37;4.50;;;1.15;;
54177;SDS011;40085;53.004;6.770;2023-01-01T05:26:19;1.27;;;0.60;;
54177;SDS011;40085;53.004;6.770;2023-01-01T05:28:47;0.52;;;0.45;;
54177;SDS011;40085;53.004;6.770;2023-01-01T05:31:14;6.07;;;1.15;;
54177;SDS011;40085;53.004;6.770;2023-01-01T05:33:44;3.08;;;1.10;;
54177;SDS011;40085;53.004;6.770;2023-01-01T05:36:15;3.22;;;1.80;;
54177;SDS011;40085;53.004;6.770;2023-01-01T05:38:42;1.35;;;0.45;;
54177;SDS011;40085;53.004;6.770;2023-01-01T05:41:10;0.77;;;0.35;;
54177;SDS011;40085;53.004;6.770;2023-01-01T05:43:37;1.65;;;0.93;;
54177;SDS011;40085;53.004;6.770;2023-01-01T05:46:04;2.60;;;1.15;;
54177;SDS011;40085;53.004;6.770;2023-01-01T05:48:41;3.70;;;0.93;;
54177;SDS011;40085;53.004;6.770;2023-01-01T05:51:08;2.67;;;1.02;;
54177;SDS011;40085;53.004;6.770;2023-01-01T05:53:35;2.17;;;0.82;;
54177;SDS011;40085;53.004;6.770;2023-01-01T05:56:01;2.35;;;0.50;;
54177;SDS011;40085;53.004;6.770;2023-01-01T05:58:28;1.60;;;0.63;;
54177;SDS011;40085;53.004;6.770;2023-01-01T06:00:54;1.30;;;0.43;;
54177;SDS011;40085;53.004;6.770;2023-01-01T06:03:20;4.25;;;0.47;;
54177;SDS011;40085;53.004;6.770;2023-01-01T06:05:46;1.48;;;0.63;;
54177;SDS011;40085;53.004;6.770;2023-01-01T06:08:12;1.75;;;0.60;;
54177;SDS011;40085;53.004;6.770;2023-01-01T06:10:38;3.42;;;0.50;;
54177;SDS011;40085;53.004;6.770;2023-01-01T06:13:03;1.95;;;0.55;;
54177;SDS011;40085;53.004;6.770;2023-01-01T06:15:29;1.58;;;0.40;;
54177;SDS011;40085;53.004;6.770;2023-01-01T06:17:56;2.05;;;0.57;;
54177;SDS011;40085;53.004;6.770;2023-01-01T06:20:22;3.30;;;0.52;;
54177;SDS011;40085;53.004;6.770;2023-01-01T06:22:48;0.52;;;0.52;;
54177;SDS011;40085;53.004;6.770;2023-01-01T06:25:14;0.28;;;0.28;;
54177;SDS011;40085;53.004;6.770;2023-01-01T06:27:39;2.65;;;0.50;;
54177;SDS011;40085;53.004;6.770;2023-01-01T06:30:05;1.08;;;0.60;;
54177;SDS011;40085;53.004;6.770;2023-01-01T06:32:32;1.77;;;0.60;;
54177;SDS011;40085;53.004;6.770;2023-01-01T06:34:58;1.17;;;0.38;;
54177;SDS011;40085;53.004;6.770;2023-01-01T06:37:24;3.20;;;0.47;;
54177;SDS011;40085;53.004;6.770;2023-01-01T06:39:51;1.30;;;0.47;;
54177;SDS011;40085;53.004;6.770;2023-01-01T06:42:17;1.42;;;0.40;;
54177;SDS011;40085;53.004;6.770;2023-01-01T06:44:42;1.90;;;0.57;;
54177;SDS011;40085;53.004;6.770;2023-01-01T06:47:08;1.20;;;0.47;;
54177;SDS011;40085;53.004;6.770;2023-01-01T06:49:33;5.15;;;0.63;;
54177;SDS011;40085;53.004;6.770;2023-01-01T06:51:59;0.25;;;0.20;;
54177;SDS011;40085;53.004;6.770;2023-01-01T06:54:24;3.65;;;0.90;;
54177;SDS011;40085;53.004;6.770;2023-01-01T06:56:50;6.45;;;0.40;;
54177;SDS011;40085;53.004;6.770;2023-01-01T06:59:16;0.82;;;0.52;;
54177;SDS011;40085;53.004;6.770;2023-01-01T07:01:41;4.70;;;0.50;;
54177;SDS011;40085;53.004;6.770;2023-01-01T07:04:10;2.90;;;0.47;;
54177;SDS011;40085;53.004;6.770;2023-01-01T07:06:37;1.88;;;0.40;;
54177;SDS011;40085;53.004;6.770;2023-01-01T07:09:03;1.50;;;0.40;;
54177;SDS011;40085;53.004;6.770;2023-01-01T07:11:30;2.05;;;0.55;;
54177;SDS011;40085;53.004;6.770;2023-01-01T07:13:55;0.73;;;0.43;;
54177;SDS011;40085;53.004;6.770;2023-01-01T07:16:22;3.85;;;0.50;;
54177;SDS011;40085;53.004;6.770;2023-01-01T07:18:48;4.13;;;0.50;;
54177;SDS011;40085;53.004;6.770;2023-01-01T07:23:52;1.73;;;0.55;;
54177;SDS011;40085;53.004;6.770;2023-01-01T07:26:20;0.88;;;0.60;;
54177;SDS011;40085;53.004;6.770;2023-01-01T07:28:47;4.00;;;0.75;;
54177;SDS011;40085;53.004;6.770;2023-01-01T07:31:12;5.90;;;0.75;;
54177;SDS011;40085;53.004;6.770;2023-01-01T07:33:38;4.20;;;0.85;;
54177;SDS011;40085;53.004;6.770;2023-01-01T07:36:03;3.60;;;0.93;;
54177;SDS011;40085;53.004;6.770;2023-01-01T07:38:29;2.83;;;0.60;;
54177;SDS011;40085;53.004;6.770;2023-01-01T07:40:55;3.67;;;0.65;;
54177;SDS011;40085;53.004;6.770;2023-01-01T07:43:20;1.98;;;0.60;;
54177;SDS011;40085;53.004;6.770;2023-01-01T07:45:46;1.60;;;0.60;;
54177;SDS011;40085;53.004;6.770;2023-01-01T07:48:12;7.65;;;1.05;;
54177;SDS011;40085;53.004;6.770;2023-01-01T07:50:39;7.47;;;1.27;;
54177;SDS011;40085;53.004;6.770;2023-01-01T07:53:05;1.08;;;0.60;;
54177;SDS011;40085;53.004;6.770;2023-01-01T07:55:31;2.55;;;0.93;;
54177;SDS011;40085;53.004;6.770;2023-01-01T07:57:58;1.58;;;0.65;;
54177;SDS011;40085;53.004;6.770;2023-01-01T08:00:24;2.67;;;0.80;;
54177;SDS011;40085;53.004;6.770;2023-01-01T08:02:50;2.88;;;0.82;;
54177;SDS011;40085;53.004;6.770;2023-01-01T08:05:16;3.35;;;1.00;;
54177;SDS011;40085;53.004;6.770;2023-01-01T08:07:45;5.53;;;1.00;;
54177;SDS011;40085;53.004;6.770;2023-01-01T08:10:15;1.65;;;0.50;;
54177;SDS011;40085;53.004;6.770;2023-01-01T08:12:42;4.45;;;1.08;;
54177;SDS011;40085;53.004;6.770;2023-01-01T08:15:08;1.48;;;0.90;;
54177;SDS011;40085;53.004;6.770;2023-01-01T08:17:34;5.25;;;0.85;;
54177;SDS011;40085;53.004;6.770;2023-01-01T08:20:00;3.30;;;1.38;;
54177;SDS011;40085;53.004;6.770;2023-01-01T08:22:26;2.97;;;1.13;;
54177;SDS011;40085;53.004;6.770;2023-01-01T08:24:51;4.75;;;0.90;;
54177;SDS011;40085;53.004;6.770;2023-01-01T08:27:17;3.65;;;1.23;;
54177;SDS011;40085;53.004;6.770;2023-01-01T08:29:43;3.58;;;0.50;;
54177;SDS011;40085;53.004;6.770;2023-01-01T08:32:09;5.93;;;1.40;;
54177;SDS011;40085;53.004;6.770;2023-01-01T08:34:38;3.88;;;0.60;;
54177;SDS011;40085;53.004;6.770;2023-01-01T08:37:04;3.65;;;0.85;;
54177;SDS011;40085;53.004;6.770;2023-01-01T08:39:30;6.97;;;0.98;;
54177;SDS011;40085;53.004;6.770;2023-01-01T08:41:56;2.78;;;0.82;;
54177;SDS011;40085;53.004;6.770;2023-01-01T08:44:22;1.67;;;0.65;;
54177;SDS011;40085;53.004;6.770;2023-01-01T08:46:47;6.10;;;1.50;;
54177;SDS011;40085;53.004;6.770;2023-01-01T08:49:13;4.32;;;0.85;;
54177;SDS011;40085;53.004;6.770;2023-01-01T08:51:38;1.60;;;0.63;;
54177;SDS011;40085;53.004;6.770;2023-01-01T08:54:05;2.40;;;1.10;;
54177;SDS011;40085;53.004;6.770;2023-01-01T08:56:30;3.95;;;0.70;;
54177;SDS011;40085;53.004;6.770;2023-01-01T08:58:57;1.75;;;0.60;;
54177;SDS011;40085;53.004;6.770;2023-01-01T09:01:23;3.28;;;0.63;;
54177;SDS011;40085;53.004;6.770;2023-01-01T09:03:51;2.50;;;0.90;;
54177;SDS011;40085;53.004;6.770;2023-01-01T09:06:17;9.15;;;1.27;;
54177;SDS011;40085;53.004;6.770;2023-01-01T09:08:43;1.48;;;0.75;;
54177;SDS011;40085;53.004;6.770;2023-01-01T09:11:22;2.33;;;0.60;;
54177;SDS011;40085;53.004;6.770;2023-01-01T09:13:49;2.55;;;0.45;;
54177;SDS011;40085;53.004;6.770;2023-01-01T09:16:15;6.35;;;0.90;;
54177;SDS011;40085;53.004;6.770;2023-01-01T09:18:40;4.90;;;0.93;;
54177;SDS011;40085;53.004;6.770;2023-01-01T09:21:06;1.67;;;0.75;;
54177;SDS011;40085;53.004;6.770;2023-01-01T09:23:32;1.70;;;0.57;;
54177;SDS011;40085;53.004;6.770;2023-01-01T09:26:01;3.28;;;0.70;;
54177;SDS011;40085;53.004;6.770;2023-01-01T09:28:31;2.45;;;0.57;;
54177;SDS011;40085;53.004;6.770;2023-01-01T09:30:57;3.20;;;0.90;;
54177;SDS011;40085;53.004;6.770;2023-01-01T09:33:23;4.25;;;0.70;;
54177;SDS011;40085;53.004;6.770;2023-01-01T09:35:48;6.53;;;1.05;;
54177;SDS011;40085;53.004;6.770;2023-01-01T09:38:14;2.83;;;0.85;;
54177;SDS011;40085;53.004;6.770;2023-01-01T09:43:27;2.58;;;0.93;;
54177;SDS011;40085;53.004;6.770;2023-01-01T09:46:06;1.73;;;0.70;;
54177;SDS011;40085;53.004;6.770;2023-01-01T09:51:08;1.90;;;0.68;;
54177;SDS011;40085;53.004;6.770;2023-01-01T09:56:13;8.73;;;1.88;;
54177;SDS011;40085;53.004;6.770;2023-01-01T09:58:47;9.55;;;1.67;;
54177;SDS011;40085;53.004;6.770;2023-01-01T10:01:26;10.10;;;3.08;;
54177;SDS011;40085;53.004;6.770;2023-01-01T10:04:00;0.77;;;0.68;;
54177;SDS011;40085;53.004;6.770;2023-01-01T10:06:43;4.68;;;1.05;;
54177;SDS011;40085;53.004;6.770;2023-01-01T10:09:29;4.75;;;1.15;;
54177;SDS011;40085;53.004;6.770;2023-01-01T10:15:17;3.58;;;1.63;;
54177;SDS011;40085;53.004;6.770;2023-01-01T10:17:48;4.95;;;0.73;;
54177;SDS011;40085;53.004;6.770;2023-01-01T10:20:29;4.30;;;1.20;;
54177;SDS011;40085;53.004;6.770;2023-01-01T10:23:06;9.60;;;0.90;;
54177;SDS011;40085;53.004;6.770;2023-01-01T10:25:43;8.95;;;0.85;;
54177;SDS011;40085;53.004;6.770;2023-01-01T10:28:20;4.50;;;1.13;;
54177;SDS011;40085;53.004;6.770;2023-01-01T10:31:18;2.58;;;0.68;;
54177;SDS011;40085;53.004;6.770;2023-01-01T10:33:49;2.83;;;0.93;;
54177;SDS011;40085;53.004;6.770;2023-01-01T10:36:16;1.70;;;0.70;;
54177;SDS011;40085;53.004;6.770;2023-01-01T10:38:43;2.22;;;0.60;;
54177;SDS011;40085;53.004;6.770;2023-01-01T10:41:10;0.65;;;0.32;;
54177;SDS011;40085;53.004;6.770;2023-01-01T10:43:37;2.08;;;0.63;;
54177;SDS011;40085;53.004;6.770;2023-01-01T10:46:03;2.08;;;0.77;;
54177;SDS011;40085;53.004;6.770;2023-01-01T10:48:30;3.45;;;0.70;;
54177;SDS011;40085;53.004;6.770;2023-01-01T10:50:57;3.47;;;0.70;;
54177;SDS011;40085;53.004;6.770;2023-01-01T10:53:35;3.70;;;0.70;;
54177;SDS011;40085;53.004;6.770;2023-01-01T10:58:40;2.65;;;0.77;;
54177;SDS011;40085;53.004;6.770;2023-01-01T11:01:32;1.40;;;0.50;;
54177;SDS011;40085;53.004;6.770;2023-01-01T11:03:59;6.78;;;0.77;;
54177;SDS011;40085;53.004;6.770;2023-01-01T11:06:38;2.10;;;0.30;;
54177;SDS011;40085;53.004;6.770;2023-01-01T11:09:18;4.43;;;0.57;;
54177;SDS011;40085;53.004;6.770;2023-01-01T11:11:56;2.10;;;0.50;;
54177;SDS011;40085;53.004;6.770;2023-01-01T11:14:29;2.60;;;0.50;;
54177;SDS011;40085;53.004;6.770;2023-01-01T11:16:59;2.22;;;0.57;;
54177;SDS011;40085;53.004;6.770;2023-01-01T11:19:32;4.78;;;0.68;;
54177;SDS011;40085;53.004;6.770;2023-01-01T11:22:03;4.50;;;0.90;;
54177;SDS011;40085;53.004;6.770;2023-01-01T11:24:33;5.30;;;0.80;;
54177;SDS011;40085;53.004;6.770;2023-01-01T11:27:32;3.75;;;0.60;;
54177;SDS011;40085;53.004;6.770;2023-01-01T11:30:05;2.85;;;0.60;;
54177;SDS011;40085;53.004;6.770;2023-01-01T11:32:43;2.30;;;0.38;;
54177;SDS011;40085;53.004;6.770;2023-01-01T11:35:14;4.80;;;1.00;;
54177;SDS011;40085;53.004;6.770;2023-01-01T11:37:44;9.40;;;1.33;;
54177;SDS011;40085;53.004;6.770;2023-01-01T11:40:15;2.47;;;0.80;;
54177;SDS011;40085;53.004;6.770;2023-01-01T11:42:55;1.23;;;0.57;;
54177;SDS011;40085;53.004;6.770;2023-01-01T11:45:38;6.90;;;0.82;;
54177;SDS011;40085;53.004;6.770;2023-01-01T11:48:11;4.00;;;0.57;;
54177;SDS011;40085;53.004;6.770;2023-01-01T11:50:47;2.42;;;0.63;;
54177;SDS011;40085;53.004;6.770;2023-01-01T11:56:01;3.58;;;0.65;;
54177;SDS011;40085;53.004;6.770;2023-01-01T12:01:01;5.93;;;0.88;;
54177;SDS011;40085;53.004;6.770;2023-01-01T12:03:44;4.22;;;0.90;;
54177;SDS011;40085;53.004;6.770;2023-01-01T12:06:28;2.35;;;0.52;;
54177;SDS011;40085;53.004;6.770;2023-01-01T12:11:46;1.88;;;0.60;;
54177;SDS011;40085;53.004;6.770;2023-01-01T12:22:49;13.32;;;1.33;;
54177;SDS011;40085;53.004;6.770;2023-01-01T12:25:17;4.68;;;0.80;;
54177;SDS011;40085;53.004;6.770;2023-01-01T12:41:26;2.13;;;0.50;;
54177;SDS011;40085;53.004;6.770;2023-01-01T12:46:36;1.33;;;0.63;;
54177;SDS011;40085;53.004;6.770;2023-01-01T12:57:31;1.10;;;0.55;;
54177;SDS011;40085;53.004;6.770;2023-01-01T13:00:03;4.78;;;0.60;;
54177;SDS011;40085;53.004;6.770;2023-01-01T13:02:37;4.20;;;0.88;;
54177;SDS011;40085;53.004;6.770;2023-01-01T13:05:16;6.55;;;1.27;;
54177;SDS011;40085;53.004;6.770;2023-01-01T13:07:49;2.78;;;0.80;;
54177;SDS011;40085;53.004;6.770;2023-01-01T13:10:22;3.30;;;0.70;;
54177;SDS011;40085;53.004;6.770;2023-01-01T13:13:02;2.58;;;0.95;;
54177;SDS011;40085;53.004;6.770;2023-01-01T13:20:46;5.00;;;0.90;;
54177;SDS011;40085;53.004;6.770;2023-01-01T13:45:28;4.57;;;1.10;;
54177;SDS011;40085;53.004;6.770;2023-01-01T13:48:06;3.67;;;1.25;;
54177;SDS011;40085;53.004;6.770;2023-01-01T13:50:42;5.28;;;1.60;;
54177;SDS011;40085;53.004;6.770;2023-01-01T14:01:56;8.70;;;2.00;;
54177;SDS011;40085;53.004;6.770;2023-01-01T14:04:28;10.70;;;3.67;;
54177;SDS011;40085;53.004;6.770;2023-01-01T14:07:03;7.57;;;1.95;;
54177;SDS011;40085;53.004;6.770;2023-01-01T14:09:37;9.75;;;1.75;;
54177;SDS011;40085;53.004;6.770;2023-01-01T14:12:07;5.93;;;1.33;;
54177;SDS011;40085;53.004;6.770;2023-01-01T14:14:43;5.70;;;1.58;;
54177;SDS011;40085;53.004;6.770;2023-01-01T14:17:10;1.52;;;1.20;;
54177;SDS011;40085;53.004;6.770;2023-01-01T14:19:38;3.90;;;1.60;;
54177;SDS011;40085;53.004;6.770;2023-01-01T14:22:09;7.25;;;1.40;;
54177;SDS011;40085;53.004;6.770;2023-01-01T14:24:39;4.53;;;1.13;;
54177;SDS011;40085;53.004;6.770;2023-01-01T14:27:07;3.85;;;1.15;;
54177;SDS011;40085;53.004;6.770;2023-01-01T14:29:33;9.35;;;1.70;;
54177;SDS011;40085;53.004;6.770;2023-01-01T14:32:07;2.85;;;0.95;;
54177;SDS011;40085;53.004;6.770;2023-01-01T14:34:38;2.28;;;1.35;;
54177;SDS011;40085;53.004;6.770;2023-01-01T14:37:04;9.38;;;3.92;;
54177;SDS011;40085;53.004;6.770;2023-01-01T14:39:42;3.13;;;1.55;;
54177;SDS011;40085;53.004;6.770;2023-01-01T14:42:12;4.20;;;1.35;;
54177;SDS011;40085;53.004;6.770;2023-01-01T14:44:41;3.47;;;0.85;;
54177;SDS011;40085;53.004;6.770;2023-01-01T14:50:02;4.50;;;1.90;;
54177;SDS011;40085;53.004;6.770;2023-01-01T14:52:35;5.35;;;3.45;;
54177;SDS011;40085;53.004;6.770;2023-01-01T14:55:01;9.25;;;3.83;;
54177;SDS011;40085;53.004;6.770;2023-01-01T14:57:29;5.30;;;2.47;;
54177;SDS011;40085;53.004;6.770;2023-01-01T14:59:56;7.63;;;4.50;;
54177;SDS011;40085;53.004;6.770;2023-01-01T15:02:23;3.22;;;1.15;;
54177;SDS011;40085;53.004;6.770;2023-01-01T15:04:52;6.50;;;1.52;;
54177;SDS011;40085;53.004;6.770;2023-01-01T15:07:19;6.18;;;1.25;;
54177;SDS011;40085;53.004;6.770;2023-01-01T15:09:46;2.00;;;1.20;;
54177;SDS011;40085;53.004;6.770;2023-01-01T15:12:13;3.45;;;1.38;;
54177;SDS011;40085;53.004;6.770;2023-01-01T15:14:43;1.27;;;1.00;;
54177;SDS011;40085;53.004;6.770;2023-01-01T15:17:12;2.70;;;1.00;;
54177;SDS011;40085;53.004;6.770;2023-01-01T15:19:43;5.85;;;1.75;;
54177;SDS011;40085;53.004;6.770;2023-01-01T15:22:24;1.88;;;1.13;;
54177;SDS011;40085;53.004;6.770;2023-01-01T15:24:53;4.65;;;1.45;;
54177;SDS011;40085;53.004;6.770;2023-01-01T15:27:29;4.38;;;1.67;;
54177;SDS011;40085;53.004;6.770;2023-01-01T15:29:56;8.20;;;2.03;;
54177;SDS011;40085;53.004;6.770;2023-01-01T15:32:24;6.57;;;1.52;;
54177;SDS011;40085;53.004;6.770;2023-01-01T15:34:52;5.25;;;1.60;;
54177;SDS011;40085;53.004;6.770;2023-01-01T15:37:22;4.88;;;1.35;;
54177;SDS011;40085;53.004;6.770;2023-01-01T15:39:59;6.25;;;1.52;;
54177;SDS011;40085;53.004;6.770;2023-01-01T15:45:34;5.13;;;1.75;;
54177;SDS011;40085;53.004;6.770;2023-01-01T15:53:08;5.45;;;1.42;;
54177;SDS011;40085;53.004;6.770;2023-01-01T15:55:41;9.73;;;1.98;;
54177;SDS011;40085;53.004;6.770;2023-01-01T15:58:12;4.03;;;1.42;;
54177;SDS011;40085;53.004;6.770;2023-01-01T16:00:43;3.85;;;1.58;;
54177;SDS011;40085;53.004;6.770;2023-01-01T16:03:20;5.78;;;1.70;;
54177;SDS011;40085;53.004;6.770;2023-01-01T16:05:49;3.20;;;1.35;;
54177;SDS011;40085;53.004;6.770;2023-01-01T16:08:17;2.42;;;1.23;;
54177;SDS011;40085;53.004;6.770;2023-01-01T16:10:44;2.83;;;1.52;;
54177;SDS011;40085;53.004;6.770;2023-01-01T16:13:10;3.13;;;0.98;;
54177;SDS011;40085;53.004;6.770;2023-01-01T16:15:37;4.43;;;1.10;;
54177;SDS011;40085;53.004;6.770;2023-01-01T16:18:12;5.22;;;1.83;;
54177;SDS011;40085;53.004;6.770;2023-01-01T16:20:41;8.30;;;1.27;;
54177;SDS011;40085;53.004;6.770;2023-01-01T16:23:08;3.83;;;0.80;;
54177;SDS011;40085;53.004;6.770;2023-01-01T16:25:34;6.70;;;1.23;;
54177;SDS011;40085;53.004;6.770;2023-01-01T16:28:00;5.43;;;1.10;;
54177;SDS011;40085;53.004;6.770;2023-01-01T16:30:28;3.72;;;1.17;;
54177;SDS011;40085;53.004;6.770;2023-01-01T16:32:54;3.78;;;1.25;;
54177;SDS011;40085;53.004;6.770;2023-01-01T16:35:19;7.13;;;1.65;;
54177;SDS011;40085;53.004;6.770;2023-01-01T16:37:45;5.53;;;1.50;;
54177;SDS011;40085;53.004;6.770;2023-01-01T16:40:11;5.72;;;1.40;;
54177;SDS011;40085;53.004;6.770;2023-01-01T16:42:36;8.55;;;1.25;;
54177;SDS011;40085;53.004;6.770;2023-01-01T16:45:03;3.17;;;1.35;;
54177;SDS011;40085;53.004;6.770;2023-01-01T16:47:29;4.53;;;1.55;;
54177;SDS011;40085;53.004;6.770;2023-01-01T16:49:55;6.00;;;1.17;;
54177;SDS011;40085;53.004;6.770;2023-01-01T16:52:20;7.30;;;1.52;;
54177;SDS011;40085;53.004;6.770;2023-01-01T16:54:46;8.88;;;1.20;;
54177;SDS011;40085;53.004;6.770;2023-01-01T16:57:12;2.42;;;1.17;;
54177;SDS011;40085;53.004;6.770;2023-01-01T16:59:37;7.25;;;1.42;;
54177;SDS011;40085;53.004;6.770;2023-01-01T17:02:03;6.25;;;1.52;;
54177;SDS011;40085;53.004;6.770;2023-01-01T17:04:29;8.45;;;2.47;;
54177;SDS011;40085;53.004;6.770;2023-01-01T17:06:55;6.60;;;2.88;;
54177;SDS011;40085;53.004;6.770;2023-01-01T17:09:21;6.90;;;2.03;;
54177;SDS011;40085;53.004;6.770;2023-01-01T17:11:47;5.53;;;1.70;;